| Pilot: | GLD1760 Luciano A. | Aircraft: | Piper | Distance: | 158NM |
| From: | SIMK | To: | SDAI | Duration: | 1.71 |
| Validation: | Valid | Tipo: | Charter | Tail Number: | PT-GLD |
| ZFW: | 1530 | Block Fuel/Init FOB | 76flight_details.php/43 | Flight Fuel | 76 |
| Passengers: | 0 | Cargo: | 10 | Alternate: | SBKP |
| Departure Time: | 1329 | Cruise Speed: | 112 | Flight Level: | FL500 |
| Flight Type: | VFR | Aircraft Type: | P28A | Weight Unit: | Kg |
| Date: | 21/04/2026 | Comments: | GOLD ACARS | Network: | VATSIM |
| Crash: | No | Validator Comments: | Rating | 125.84 |
| ROUTE | DCT 2101S04722W 2116S04718W SDKB 2204S04659W 2220S04709W REA 2236S04719W DCT |
| REMARKS | PER/A OPR/GOLD VIRTUAL AIRLINES PER/A RMK/FROM SIMK/PIC GLD1760/REA KILO/EM TREINAMENTO VFR/ RMK/VATCAREER |
| Crash | OK | Beacon Lights off with engine on | OK | Speed above 250KIAS below 10.000ft | OK |
| Landing Lights OFF below 10.000ft | OK | Landing Lights ON above 10.000ft | OK | Stall | OK |
| Overspeed | OK | Pause | OK | Refuel | OK |
| Slew | OK | Taxi Lights OFF during taxi | OK | Land Lights OFF during take off | OK |
| Landing Lights OFF during landing | OK | Landed in not planned airfield | OK | Taxi speed above 25 kt | OK |
| Incorrect QNH during take off | OK | Incorrect QNH during landing | OK |
| Wind: | 306º/2 kt | Heading: | 276 |
| VS: | -36 ft/min | IAS: | 53 kt |
| Gforce: | 1.0816 G | Bank: | -0.78 |
| Pitch | -1.93 | Flaps | 100 |
| Nav Lights | ON | Landing Lights | ON |
| Beacon Lights | ON | Strobe Lights | ON |
| DATE | EVENT | IAS | ALTITUDE |
|---|---|---|---|
| 2026-04-21 13:29:51 | GOLD ACARS VERSION 3.3.6.9 | 0 | 0 |
| 2026-04-21 13:29:51 | BOARDING | 0 | 3292 |
| 2026-04-21 13:29:51 | LITTLENAVMAP ON | 0 | 3292 |
| 2026-04-21 13:30:33 | NAV LIGHTS ON | 0 | 3292 |
| 2026-04-21 13:30:45 | NAV LIGHTS OFF | 0 | 3292 |
| 2026-04-21 13:30:58 | FLAP 33% | 0 | 3292 |
| 2026-04-21 13:31:00 | FLAP 66% | 0 | 3292 |
| 2026-04-21 13:31:00 | FLAP 100% | 0 | 3292 |
| 2026-04-21 13:31:05 | FLAP 33% | 0 | 3292 |
| 2026-04-21 13:31:05 | FLAP 0% | 0 | 3292 |
| 2026-04-21 13:32:12 | NAV LIGHTS ON | 0 | 3292 |
| 2026-04-21 13:32:22 | STB LIGHTS ON | 0 | 3292 |
| 2026-04-21 13:32:54 | STARTING ENGINE 1 | 0 | 3292 |
| 2026-04-21 13:37:30 | TAXI TO THE RWY | 5 | 3289 |
| 2026-04-21 13:40:23 | LND LIGHTS ON | 14 | 3291 |
| 2026-04-21 13:43:22 | CLIMBING | 69 | 3320 |
| 2026-04-21 13:43:57 | AP ENGAGED | 74 | 3715 |
| 2026-04-21 13:44:02 | AP DISENGAGED | 77 | 3746 |
| 2026-04-21 13:44:17 | AP ENGAGED | 80 | 3913 |
| 2026-04-21 13:44:24 | AP DISENGAGED | 79 | 4018 |
| 2026-04-21 13:45:03 | AP ENGAGED | 81 | 4526 |
| 2026-04-21 13:45:09 | CRUISE | 83 | 4628 |
| 2026-04-21 13:45:11 | LANDING | 85 | 4626 |
| 2026-04-21 13:45:29 | AP DISENGAGED | 105 | 4530 |
| 2026-04-21 13:45:37 | CLIMBING | 103 | 4522 |
| 2026-04-21 13:45:37 | AP ENGAGED | 101 | 4535 |
| 2026-04-21 13:45:47 | CRUISE | 93 | 4710 |
| 2026-04-21 13:46:31 | AP DISENGAGED | 101 | 4617 |
| 2026-04-21 13:46:39 | AP ENGAGED | 102 | 4615 |
| 2026-04-21 13:46:42 | AP DISENGAGED | 102 | 4620 |
| 2026-04-21 13:46:52 | LANDING | 101 | 4594 |
| 2026-04-21 13:47:54 | AP ENGAGED | 96 | 4452 |
| 2026-04-21 13:48:22 | CLIMBING | 90 | 4441 |
| 2026-04-21 13:48:23 | CRUISE | 90 | 4450 |
| 2026-04-21 13:48:57 | CLIMBING | 93 | 4445 |
| 2026-04-21 13:48:59 | CRUISE | 97 | 4463 |
| 2026-04-21 13:49:49 | CLIMBING | 96 | 4447 |
| 2026-04-21 13:49:51 | CRUISE | 98 | 4456 |
| 2026-04-21 13:50:31 | CLIMBING | 99 | 4441 |
| 2026-04-21 13:50:35 | CRUISE | 104 | 4481 |
| 2026-04-21 13:51:51 | CLIMBING | 95 | 4445 |
| 2026-04-21 13:51:54 | CRUISE | 98 | 4472 |
| 2026-04-21 13:52:08 | CLIMBING | 108 | 4424 |
| 2026-04-21 13:52:10 | CRUISE | 105 | 4453 |
| 2026-04-21 13:52:48 | CLIMBING | 95 | 4435 |
| 2026-04-21 13:52:52 | CRUISE | 98 | 4477 |
| 2026-04-21 13:53:57 | CLIMBING | 94 | 4440 |
| 2026-04-21 13:53:59 | CRUISE | 97 | 4456 |
| 2026-04-21 13:54:54 | CLIMBING | 104 | 4438 |
| 2026-04-21 13:54:56 | CRUISE | 103 | 4452 |
| 2026-04-21 13:55:06 | CLIMBING | 98 | 4440 |
| 2026-04-21 13:55:09 | CRUISE | 102 | 4462 |
| 2026-04-21 13:55:27 | CLIMBING | 103 | 4435 |
| 2026-04-21 13:55:29 | CRUISE | 104 | 4449 |
| 2026-04-21 13:57:33 | CLIMBING | 101 | 4437 |
| 2026-04-21 13:57:35 | CRUISE | 102 | 4451 |
| 2026-04-21 13:58:00 | CLIMBING | 96 | 4443 |
| 2026-04-21 13:58:02 | CRUISE | 101 | 4456 |
| 2026-04-21 13:58:16 | CLIMBING | 97 | 4435 |
| 2026-04-21 13:58:18 | CRUISE | 97 | 4453 |
| 2026-04-21 13:59:59 | CLIMBING | 100 | 4436 |
| 2026-04-21 14:00:01 | CRUISE | 100 | 4455 |
| 2026-04-21 14:00:08 | CLIMBING | 102 | 4438 |
| 2026-04-21 14:00:10 | CRUISE | 99 | 4449 |
| 2026-04-21 14:00:27 | CLIMBING | 100 | 4432 |
| 2026-04-21 14:00:29 | CRUISE | 98 | 4457 |
| 2026-04-21 14:01:39 | LANDING | 107 | 4430 |
| 2026-04-21 14:03:07 | CLIMBING | 105 | 4431 |
| 2026-04-21 14:03:08 | CRUISE | 103 | 4440 |
| 2026-04-21 14:04:03 | CLIMBING | 102 | 4431 |
| 2026-04-21 14:04:05 | CRUISE | 103 | 4445 |
| 2026-04-21 14:05:58 | CLIMBING | 96 | 4441 |
| 2026-04-21 14:06:01 | CRUISE | 99 | 4458 |
| 2026-04-21 14:06:16 | CLIMBING | 98 | 4439 |
| 2026-04-21 14:06:18 | CRUISE | 101 | 4460 |
| 2026-04-21 14:06:32 | CLIMBING | 103 | 4437 |
| 2026-04-21 14:06:36 | CRUISE | 107 | 4478 |
| 2026-04-21 14:07:31 | CLIMBING | 99 | 4439 |
| 2026-04-21 14:07:33 | CRUISE | 100 | 4457 |
| 2026-04-21 14:08:33 | CLIMBING | 105 | 4430 |
| 2026-04-21 14:08:36 | CRUISE | 104 | 4462 |
| 2026-04-21 14:14:37 | AP DISENGAGED | 115 | 4430 |
| 2026-04-21 14:14:38 | AP ENGAGED | 115 | 4433 |
| 2026-04-21 14:15:43 | CLIMBING | 106 | 4447 |
| 2026-04-21 14:15:47 | CRUISE | 107 | 4480 |
| 2026-04-21 14:24:48 | CLIMBING | 106 | 4468 |
| 2026-04-21 14:24:50 | CRUISE | 107 | 4489 |
| 2026-04-21 14:26:05 | CLIMBING | 110 | 4467 |
| 2026-04-21 14:26:06 | CRUISE | 108 | 4474 |
| 2026-04-21 14:30:22 | CLIMBING | 105 | 4467 |
| 2026-04-21 14:30:26 | CRUISE | 107 | 4502 |
| 2026-04-21 14:30:51 | CLIMBING | 109 | 4469 |
| 2026-04-21 14:30:52 | CRUISE | 108 | 4478 |
| 2026-04-21 14:31:19 | CLIMBING | 106 | 4475 |
| 2026-04-21 14:31:21 | CRUISE | 107 | 4484 |
| 2026-04-21 14:33:12 | CLIMBING | 108 | 4468 |
| 2026-04-21 14:33:15 | CRUISE | 111 | 4490 |
| 2026-04-21 14:33:31 | CLIMBING | 113 | 4470 |
| 2026-04-21 14:33:33 | CRUISE | 115 | 4486 |
| 2026-04-21 14:34:42 | CLIMBING | 107 | 4465 |
| 2026-04-21 14:34:44 | CRUISE | 107 | 4480 |
| 2026-04-21 14:37:51 | CLIMBING | 114 | 4465 |
| 2026-04-21 14:37:53 | CRUISE | 114 | 4479 |
| 2026-04-21 14:40:00 | CLIMBING | 106 | 4472 |
| 2026-04-21 14:40:03 | CRUISE | 108 | 4488 |
| 2026-04-21 14:40:23 | CLIMBING | 113 | 4460 |
| 2026-04-21 14:40:26 | CRUISE | 112 | 4482 |
| 2026-04-21 14:40:37 | CLIMBING | 111 | 4473 |
| 2026-04-21 14:40:38 | CRUISE | 109 | 4480 |
| 2026-04-21 14:41:06 | CLIMBING | 107 | 4477 |
| 2026-04-21 14:41:07 | CRUISE | 108 | 4487 |
| 2026-04-21 15:00:44 | LANDING | 93 | 3218 |
| 2026-04-21 15:01:16 | AP DISENGAGED | 90 | 3002 |
| 2026-04-21 15:01:28 | FLAP 33% | 84 | 3005 |
| 2026-04-21 15:06:52 | FLAP 66% | 82 | 2994 |
| 2026-04-21 15:07:56 | FLAP 100% | 80 | 2508 |
| 2026-04-21 15:08:55 | LANDED AIRPORT [SDAI] | 55 | 2021 |
| 2026-04-21 15:08:55 | LANDED - VS: -36 ft/min | 53 | 2020 |
| 2026-04-21 15:09:01 | TAXI TO THE GATE | 27 | 2021 |
| 2026-04-21 15:09:40 | AT THE GATE | 1 | 2022 |
| 2026-04-21 15:09:55 | FLAP 33% | 1 | 2022 |
| 2026-04-21 15:09:55 | FLAP 0% | 1 | 2022 |
| 2026-04-21 15:09:57 | LND LIGHTS OFF | 1 | 2022 |
| 2026-04-21 15:11:26 | STOPPING ENGINE 1 | 1 | 2018 |
| 2026-04-21 15:12:09 | STB LIGHTS OFF | 1 | 2018 |
| 2026-04-21 15:12:09 | FLIGHT FINISHED | 1 | 2018 |
| DATE | IAS | GS | ALTITUDE | FUEL USED | OAT | Flight Phase |
|---|---|---|---|---|---|---|
| 2026-04-21 13:31:35 | 0 | 0 | 3292 | 0 | 27 | BOARDING |
| 2026-04-21 13:32:35 | 0 | 0 | 3292 | 0 | 27 | BOARDING |
| 2026-04-21 13:33:36 | 0 | 0 | 3292 | 0 | 27 | BOARDING |
| 2026-04-21 13:34:36 | 0 | 0 | 3284 | 0 | 27 | BOARDING |
| 2026-04-21 13:35:36 | 0 | 0 | 3284 | 0 | 27 | BOARDING |
| 2026-04-21 13:36:36 | 0 | 0 | 3284 | 0 | 27 | BOARDING |
| 2026-04-21 13:37:36 | 9 | 8 | 3289 | 0 | 27 | BOARDING |
| 2026-04-21 13:38:37 | 0 | 0 | 3292 | 0 | 27 | TAXI TO THE RWY |
| 2026-04-21 13:39:37 | 0 | 0 | 3292 | 0 | 27 | TAXI TO THE RWY |
| 2026-04-21 13:40:37 | 17 | 18 | 3291 | 0 | 27 | TAXI TO THE RWY |
| 2026-04-21 13:41:37 | 21 | 23 | 3288 | 0 | 27 | TAXI TO THE RWY |
| 2026-04-21 13:42:37 | 8 | 9 | 3291 | 0 | 28 | TAXI TO THE RWY |
| 2026-04-21 13:43:38 | 74 | 81 | 3481 | 0 | 26 | TAXI TO THE RWY |
| 2026-04-21 13:44:38 | 80 | 92 | 4169 | 1 | 23 | CLIMBING |
| 2026-04-21 13:45:38 | 101 | 104 | 4545 | 1 | 21 | CLIMBING |
| 2026-04-21 13:46:38 | 100 | 107 | 4613 | 2 | 21 | CLIMBING |
| 2026-04-21 13:47:38 | 99 | 110 | 4463 | 2 | 22 | CRUISE |
| 2026-04-21 13:48:39 | 92 | 101 | 4448 | 2 | 22 | LANDING |
| 2026-04-21 13:49:39 | 99 | 107 | 4435 | 3 | 22 | CRUISE |
| 2026-04-21 13:50:39 | 110 | 120 | 4470 | 3 | 21 | CRUISE |
| 2026-04-21 13:51:39 | 100 | 110 | 4428 | 3 | 21 | CRUISE |
| 2026-04-21 13:52:39 | 98 | 107 | 4432 | 4 | 21 | CRUISE |
| 2026-04-21 13:53:39 | 96 | 105 | 4430 | 4 | 21 | CRUISE |
| 2026-04-21 13:54:40 | 108 | 117 | 4447 | 4 | 21 | CRUISE |
| 2026-04-21 13:55:40 | 104 | 113 | 4427 | 5 | 21 | CRUISE |
| 2026-04-21 13:56:40 | 106 | 115 | 4448 | 5 | 21 | CRUISE |
| 2026-04-21 13:57:40 | 105 | 113 | 4445 | 5 | 21 | CRUISE |
| 2026-04-21 13:58:41 | 101 | 109 | 4454 | 6 | 21 | CRUISE |
| 2026-04-21 13:59:41 | 102 | 109 | 4425 | 6 | 21 | CRUISE |
| 2026-04-21 14:00:41 | 99 | 107 | 4435 | 6 | 21 | CRUISE |
| 2026-04-21 14:01:41 | 107 | 114 | 4420 | 6 | 21 | CRUISE |
| 2026-04-21 14:02:41 | 104 | 113 | 4448 | 7 | 21 | LANDING |
| 2026-04-21 14:03:42 | 101 | 108 | 4450 | 7 | 21 | LANDING |
| 2026-04-21 14:04:42 | 111 | 116 | 4445 | 7 | 21 | CRUISE |
| 2026-04-21 14:05:42 | 100 | 108 | 4434 | 8 | 21 | CRUISE |
| 2026-04-21 14:06:42 | 112 | 121 | 4425 | 8 | 21 | CRUISE |
| 2026-04-21 14:07:43 | 111 | 118 | 4446 | 8 | 21 | CRUISE |
| 2026-04-21 14:08:43 | 109 | 113 | 4458 | 9 | 20 | CRUISE |
| 2026-04-21 14:09:43 | 100 | 107 | 4446 | 9 | 20 | CRUISE |
| 2026-04-21 14:10:43 | 102 | 109 | 4433 | 9 | 20 | CRUISE |
| 2026-04-21 14:11:44 | 111 | 120 | 4442 | 10 | 20 | CRUISE |
| 2026-04-21 14:12:45 | 107 | 115 | 4431 | 10 | 20 | CRUISE |
| 2026-04-21 14:13:45 | 110 | 118 | 4445 | 10 | 20 | CRUISE |
| 2026-04-21 14:14:45 | 113 | 121 | 4436 | 11 | 20 | CRUISE |
| 2026-04-21 14:15:45 | 107 | 114 | 4473 | 11 | 20 | CRUISE |
| 2026-04-21 14:16:46 | 107 | 115 | 4466 | 12 | 20 | CLIMBING |
| 2026-04-21 14:17:46 | 108 | 116 | 4476 | 12 | 20 | CRUISE |
| 2026-04-21 14:18:46 | 112 | 119 | 4476 | 13 | 20 | CRUISE |
| 2026-04-21 14:19:46 | 103 | 112 | 4477 | 13 | 20 | CRUISE |
| 2026-04-21 14:20:46 | 107 | 116 | 4471 | 13 | 20 | CRUISE |
| 2026-04-21 14:21:47 | 113 | 123 | 4478 | 14 | 20 | CRUISE |
| 2026-04-21 14:22:47 | 110 | 119 | 4471 | 14 | 20 | CRUISE |
| 2026-04-21 14:23:47 | 113 | 122 | 4475 | 15 | 20 | CRUISE |
| 2026-04-21 14:24:47 | 106 | 116 | 4461 | 15 | 20 | CRUISE |
| 2026-04-21 14:25:48 | 114 | 123 | 4462 | 16 | 20 | CRUISE |
| 2026-04-21 14:26:48 | 109 | 118 | 4477 | 16 | 19 | CRUISE |
| 2026-04-21 14:27:48 | 112 | 119 | 4470 | 16 | 19 | CRUISE |
| 2026-04-21 14:28:48 | 114 | 122 | 4471 | 17 | 19 | CRUISE |
| 2026-04-21 14:29:48 | 111 | 119 | 4471 | 17 | 19 | CRUISE |
| 2026-04-21 14:30:49 | 109 | 116 | 4462 | 18 | 19 | CRUISE |
| 2026-04-21 14:31:49 | 113 | 122 | 4465 | 18 | 19 | CRUISE |
| 2026-04-21 14:32:49 | 112 | 121 | 4479 | 19 | 19 | CRUISE |
| 2026-04-21 14:33:49 | 109 | 118 | 4461 | 19 | 19 | CRUISE |
| 2026-04-21 14:34:49 | 112 | 121 | 4477 | 19 | 19 | CRUISE |
| 2026-04-21 14:35:50 | 112 | 121 | 4472 | 20 | 19 | CRUISE |
| 2026-04-21 14:36:50 | 110 | 119 | 4463 | 20 | 19 | CRUISE |
| 2026-04-21 14:37:50 | 114 | 124 | 4459 | 21 | 19 | CRUISE |
| 2026-04-21 14:38:50 | 111 | 120 | 4461 | 21 | 19 | CRUISE |
| 2026-04-21 14:39:51 | 108 | 114 | 4462 | 22 | 19 | CRUISE |
| 2026-04-21 14:40:51 | 108 | 115 | 4473 | 22 | 19 | CRUISE |
| 2026-04-21 14:41:51 | 113 | 121 | 4478 | 22 | 19 | CRUISE |
| 2026-04-21 14:42:51 | 114 | 122 | 4467 | 23 | 19 | CRUISE |
| 2026-04-21 14:43:51 | 114 | 123 | 4473 | 23 | 19 | CRUISE |
| 2026-04-21 14:44:52 | 106 | 115 | 4461 | 24 | 19 | CRUISE |
| 2026-04-21 14:45:52 | 111 | 119 | 4472 | 24 | 18 | CRUISE |
| 2026-04-21 14:46:52 | 110 | 119 | 4470 | 25 | 18 | CRUISE |
| 2026-04-21 14:47:52 | 110 | 118 | 4466 | 25 | 18 | CRUISE |
| 2026-04-21 14:48:53 | 109 | 118 | 4475 | 25 | 18 | CRUISE |
| 2026-04-21 14:49:53 | 108 | 117 | 4469 | 26 | 18 | CRUISE |
| 2026-04-21 14:50:53 | 109 | 118 | 4477 | 26 | 18 | CRUISE |
| 2026-04-21 14:51:53 | 109 | 118 | 4469 | 27 | 18 | CRUISE |
| 2026-04-21 14:52:53 | 109 | 118 | 4468 | 27 | 18 | CRUISE |
| 2026-04-21 14:53:53 | 108 | 117 | 4467 | 28 | 18 | CRUISE |
| 2026-04-21 14:54:54 | 108 | 117 | 4465 | 28 | 18 | CRUISE |
| 2026-04-21 14:55:54 | 104 | 112 | 4463 | 28 | 18 | CRUISE |
| 2026-04-21 14:56:54 | 93 | 102 | 4460 | 29 | 18 | CRUISE |
| 2026-04-21 14:57:54 | 88 | 96 | 4397 | 29 | 18 | CRUISE |
| 2026-04-21 14:58:54 | 94 | 101 | 4095 | 29 | 19 | CRUISE |
| 2026-04-21 14:59:55 | 95 | 100 | 3626 | 29 | 21 | CRUISE |
| 2026-04-21 15:00:55 | 94 | 99 | 3135 | 30 | 22 | CRUISE |
| 2026-04-21 15:01:55 | 76 | 82 | 2983 | 30 | 23 | LANDING |
| 2026-04-21 15:02:55 | 86 | 91 | 3035 | 30 | 22 | LANDING |
| 2026-04-21 15:03:56 | 84 | 88 | 3051 | 30 | 22 | LANDING |
| 2026-04-21 15:04:56 | 83 | 89 | 3049 | 31 | 23 | LANDING |
| 2026-04-21 15:05:56 | 80 | 86 | 3024 | 31 | 23 | LANDING |
| 2026-04-21 15:06:56 | 79 | 85 | 2987 | 31 | 23 | LANDING |
| 2026-04-21 15:07:56 | 81 | 84 | 2518 | 32 | 26 | LANDING |
| 2026-04-21 15:08:57 | 44 | 43 | 2020 | 32 | 27 | LANDING |
| 2026-04-21 15:09:57 | 1 | 0 | 2022 | 32 | 27 | LANDED - VS: -36 ft/min |
| 2026-04-21 15:10:57 | 2 | 4 | 2018 | 32 | 27 | AT THE GATE |
| 2026-04-21 15:11:57 | 1 | 0 | 2018 | 32 | 27 | AT THE GATE |